Change the Weather History Date:

Sunday, April 7, 2013

  Actual Average (KUIN) Record (KUIN)
Temperature  
Mean Temperature 60 °F 50 °F  
Max Temperature 75 °F 61 °F 84 °F (1948)
Min Temperature 45 °F 40 °F 19 °F (2007)
Degree Days  
Heating Degree Days 5 15  
Month to date heating degree days 112  
Since 1 July heating degree days 5172  
Cooling Degree Days 0 0  
Month to date cooling degree days 0  
Year to date cooling degree days 2  
Growing Degree Days 10 (Base 50)    
Moisture  
Dew Point 44 °F    
Average Humidity 53    
Maximum Humidity 83    
Minimum Humidity 30    
Precipitation  
Precipitation 0.00 in 0.12 in 1.48 in (1942)
Month to date precipitation 0.77  
Year to date precipitation 6.63  
Sea Level Pressure  
Sea Level Pressure 29.86 in    
Wind  
Wind Speed 5 mph (SE)    
Max Wind Speed 17 mph    
Max Gust Speed 25 mph    
Visibility 10 miles    
Events Rain    
T = Trace of Precipitation, MM = Missing Value Source: NWS Daily Summary

Daily Weather History Graph

Daily Weather History Graph

Search for Another Location

Airport or City:

Trip Planner

Search our weather history database for the weather conditions in past years. The results will help you decide how hot, cold, wet, or windy it might be!

Date:

Astronomy

Apr. 07, 2013 Rise Set
Actual Time 6:37 AM CDT 7:33 PM CDT
Civil Twilight 6:10 AM CDT 8:00 PM CDT
Nautical Twilight 5:37 AM CDT 8:33 PM CDT
Astronomical Twilight 5:03 AM CDT 9:07 PM CDT
Moon 4:54 AM CDT (4/7) 5:06 PM CDT (4/7)
Length of Visible Light 13h 50m
Length of Day
12h 55m
Waning Crescent, 8% of the Moon is Illuminated
Apr 7
Waning Crescent
Apr 10
New
Apr 18
First Quarter
Apr 25
Full
May 2
Last Quarter

Hourly Weather History & Observations

Time (CDT) Temp. Dew Point Humidity Pressure Visibility Wind Dir Wind Speed Gust Speed Precip Events Conditions
12:15 AM 61.3 °F 46.9 °F 59% 29.80 in 10.0 mi West 3.5 mph - N/A   Clear
12:35 AM 60.4 °F 45.5 °F 58% 29.80 in 10.0 mi West 3.5 mph - N/A   Clear
12:55 AM 59.9 °F 45.0 °F 58% 29.80 in 10.0 mi WSW 3.5 mph - N/A   Clear
1:15 AM 60.3 °F 44.8 °F 57% 29.81 in 10.0 mi West 3.5 mph - N/A   Clear
1:35 AM 58.5 °F 45.0 °F 61% 29.81 in 10.0 mi SW 4.6 mph - N/A   Clear
1:55 AM 57.9 °F 45.0 °F 62% 29.82 in 10.0 mi WSW 4.6 mph - N/A   Clear
2:15 AM 58.3 °F 44.1 °F 59% 29.82 in 10.0 mi WSW 4.6 mph - N/A   Clear
2:35 AM 56.5 °F 44.4 °F 64% 29.82 in 10.0 mi WSW 3.5 mph - N/A   Clear
2:55 AM 53.6 °F 44.1 °F 70% 29.83 in 10.0 mi West 4.6 mph - N/A   Clear
3:15 AM 51.8 °F 44.1 °F 75% 29.83 in 10.0 mi WNW 3.5 mph - N/A   Clear
3:35 AM 49.8 °F 43.0 °F 77% 29.84 in 10.0 mi WNW 4.6 mph - N/A   Clear
3:55 AM 51.4 °F 43.5 °F 74% 29.84 in 10.0 mi WNW 3.5 mph - N/A   Clear
4:15 AM 50.9 °F 42.3 °F 72% 29.85 in 10.0 mi Calm Calm - N/A   Clear
4:35 AM 48.0 °F 42.4 °F 81% 29.86 in 10.0 mi NNW 5.8 mph - N/A   Clear
4:55 AM 51.1 °F 41.9 °F 71% 29.87 in 10.0 mi NNW 3.5 mph - N/A   Clear
5:15 AM 50.2 °F 41.4 °F 72% 29.88 in 10.0 mi Calm Calm - N/A   Clear
5:35 AM 48.6 °F 41.0 °F 75% 29.88 in 10.0 mi Calm Calm - N/A   Clear
5:55 AM 48.0 °F 41.5 °F 78% 29.88 in 10.0 mi North 5.8 mph - N/A   Clear
6:15 AM 50.9 °F 42.3 °F 72% 29.89 in 10.0 mi Calm Calm - N/A   Clear
6:35 AM 50.9 °F 42.4 °F 73% 29.90 in 10.0 mi Calm Calm - N/A   Clear
6:55 AM 49.5 °F 42.1 °F 76% 29.91 in 10.0 mi Calm Calm - N/A   Clear
7:15 AM 45.7 °F 40.3 °F 81% 29.91 in 10.0 mi Calm Calm - N/A   Clear
7:35 AM 46.2 °F 41.4 °F 83% 29.91 in 10.0 mi Calm Calm - N/A   Clear
7:55 AM 50.2 °F 43.9 °F 79% 29.92 in 10.0 mi Calm Calm - N/A   Clear
8:15 AM 54.1 °F 44.2 °F 69% 29.92 in 10.0 mi NNE 3.5 mph - N/A   Clear
8:35 AM 55.4 °F 44.8 °F 67% 29.92 in 10.0 mi NE 3.5 mph - N/A   Clear
8:55 AM 56.8 °F 44.8 °F 64% 29.92 in 10.0 mi NE 3.5 mph - N/A   Clear
9:15 AM 59.0 °F 43.5 °F 56% 29.92 in 10.0 mi NE 5.8 mph - N/A   Clear
9:35 AM 60.6 °F 42.4 °F 51% 29.93 in 10.0 mi ENE 4.6 mph - N/A   Clear
9:55 AM 62.6 °F 42.4 °F 48% 29.93 in 10.0 mi East 3.5 mph - N/A   Clear
10:15 AM 63.7 °F 42.1 °F 45% 29.93 in 10.0 mi Calm Calm - N/A   Clear
10:35 AM 64.8 °F 44.1 °F 47% 29.93 in 10.0 mi NE 4.6 mph - N/A   Clear
10:55 AM 65.8 °F 43.2 °F 44% 29.93 in 10.0 mi ESE 4.6 mph - N/A   Clear
11:15 AM 66.7 °F 42.8 °F 42% 29.94 in 10.0 mi East 4.6 mph - N/A   Clear
11:35 AM 68.0 °F 43.9 °F 42% 29.94 in 10.0 mi Calm Calm - N/A   Clear
11:55 AM 68.5 °F 43.3 °F 40% 29.94 in 10.0 mi Calm Calm - N/A   Clear
12:15 PM 70.3 °F 44.8 °F 40% 29.93 in 10.0 mi SE 6.9 mph - N/A   Clear
12:35 PM 71.4 °F 43.5 °F 37% 29.93 in 10.0 mi South 5.8 mph - N/A   Clear
12:55 PM 72.5 °F 43.9 °F 36% 29.92 in 10.0 mi SSE 4.6 mph - N/A   Clear
1:15 PM 72.9 °F 42.4 °F 33% 29.91 in 10.0 mi SE 6.9 mph - N/A   Clear
1:35 PM 73.0 °F 41.9 °F 33% 29.91 in 10.0 mi South 5.8 mph - N/A   Clear
1:55 PM 72.9 °F 41.7 °F 33% 29.91 in 10.0 mi South 3.5 mph - N/A   Clear
2:15 PM 73.4 °F 42.4 °F 33% 29.90 in 10.0 mi SSE 5.8 mph - N/A   Clear
2:35 PM 73.9 °F 41.9 °F 32% 29.90 in 10.0 mi SE 8.1 mph - N/A   Clear
2:55 PM 73.6 °F 41.5 °F 32% 29.89 in 10.0 mi SSE 5.8 mph - N/A   Clear
3:15 PM 73.4 °F 41.7 °F 32% 29.88 in 10.0 mi South 8.1 mph - N/A   Clear
3:35 PM 73.4 °F 40.6 °F 31% 29.88 in 10.0 mi South 4.6 mph - N/A   Clear
3:55 PM 73.8 °F 41.7 °F 32% 29.88 in 10.0 mi SSE 4.6 mph - N/A   Clear
4:15 PM 74.5 °F 42.4 °F 32% 29.87 in 10.0 mi SE 4.6 mph - N/A   Clear
4:35 PM 74.7 °F 42.4 °F 31% 29.86 in 10.0 mi SE 5.8 mph - N/A   Clear
4:55 PM 75.0 °F 42.3 °F 31% 29.86 in 10.0 mi SE 6.9 mph - N/A   Clear
5:15 PM 75.6 °F 42.8 °F 31% 29.85 in 10.0 mi ESE 9.2 mph - N/A   Clear
5:35 PM 75.2 °F 41.9 °F 30% 29.85 in 10.0 mi East 5.8 mph - N/A   Clear
5:55 PM 74.5 °F 42.6 °F 32% 29.84 in 10.0 mi ESE 10.4 mph 16.1 mph N/A   Clear
6:15 PM 74.3 °F 42.6 °F 32% 29.84 in 10.0 mi ESE 10.4 mph - N/A   Clear
6:35 PM 73.0 °F 42.4 °F 33% 29.84 in 10.0 mi ESE 8.1 mph - N/A   Clear
6:55 PM 71.6 °F 42.3 °F 35% 29.83 in 10.0 mi East 6.9 mph - N/A   Clear
7:15 PM 69.8 °F 41.9 °F 36% 29.83 in 10.0 mi ESE 6.9 mph - N/A   Clear
7:35 PM 68.7 °F 41.4 °F 37% 29.82 in 5.0 mi East 5.8 mph - N/A   Haze
7:55 PM 67.8 °F 42.3 °F 39% 29.82 in 10.0 mi ESE 8.1 mph - N/A   Clear
8:15 PM 66.6 °F 43.7 °F 44% 29.82 in 10.0 mi ESE 8.1 mph - N/A   Clear
8:35 PM 66.2 °F 45.0 °F 46% 29.83 in 10.0 mi ESE 9.2 mph - N/A   Clear
8:55 PM 66.4 °F 45.5 °F 47% 29.82 in 10.0 mi ESE 10.4 mph - N/A   Clear
9:15 PM 66.4 °F 45.7 °F 47% 29.83 in 10.0 mi SE 9.2 mph - N/A   Scattered Clouds
9:35 PM 66.9 °F 45.9 °F 47% 29.81 in 10.0 mi SE 12.7 mph - N/A   Mostly Cloudy
9:55 PM 67.5 °F 47.7 °F 49% 29.81 in 10.0 mi SE 15.0 mph - N/A   Overcast
10:15 PM 66.2 °F 52.5 °F 61% 29.80 in 10.0 mi SE 15.0 mph 20.7 mph N/A   Overcast
10:35 PM 65.3 °F 54.0 °F 67% 29.79 in 10.0 mi SE 17.3 mph 24.2 mph N/A   Overcast
10:55 PM 64.8 °F 54.5 °F 69% 29.78 in 10.0 mi SE 16.1 mph 25.3 mph N/A   Mostly Cloudy
11:15 PM 64.6 °F 54.1 °F 69% 29.77 in 10.0 mi SE 15.0 mph 20.7 mph N/A   Scattered Clouds
11:35 PM 64.2 °F 54.7 °F 71% 29.77 in 10.0 mi SE 15.0 mph 20.7 mph N/A Rain Light Rain
11:55 PM 63.5 °F 55.6 °F 75% 29.76 in 10.0 mi SE 13.8 mph - N/A   Scattered Clouds